Talisheek, Louisiana
Current Conditions -  °F | °C
As of 12:53 AM on Thursday 23 Oct 2014 (Local Time) from KASD Reporting Station
Clear Clear  
Wind Chill: 55°   Ceiling: Unl
Heat Index: 55°   Visibility: 10mi
Dew Point: 49°   Wind: 5mph
Humidity: 80%   Direction: 30°NNE
Pressure: 30.08"   Gusts: NA
Location:  30.53°N, 89.88°W
Report Text: KASD 230553Z AUTO 03004KT 10SM CLR 13/09 A3008 RMK AO2 SLP185 T01280094 10183 20122 402720111 58000
Loading
Personal Weather Stations






























Interactive Weather Map
Tropical Storm Tracking
New forecast layout! Learn more

10-Day Weather Forecast

Advertisements
Track Severe Weather on mobile